createdAt,value
2022-10-16T00:01:45.338Z,11.13
2022-10-16T00:04:13.144Z,6.43
2022-10-16T00:06:40.982Z,7.47
2022-10-16T00:09:09.190Z,9.67
2022-10-16T00:11:40.304Z,9.07
2022-10-16T00:14:13.080Z,6.57
2022-10-16T00:16:44.044Z,11.97
2022-10-16T00:19:13.399Z,9.00
2022-10-16T00:21:40.923Z,5.93
2022-10-16T00:24:11.656Z,10.03
2022-10-16T00:26:40.345Z,8.43
2022-10-16T00:29:08.608Z,8.97
2022-10-16T00:31:36.501Z,10.93
2022-10-16T00:34:04.460Z,12.73
2022-10-16T00:36:33.096Z,6.50
2022-10-16T00:39:02.171Z,9.93
2022-10-16T00:41:32.820Z,8.00
2022-10-16T00:44:22.631Z,7.80
2022-10-16T00:46:51.107Z,8.07
2022-10-16T00:49:22.016Z,7.07
2022-10-16T00:51:55.366Z,6.17
2022-10-16T00:54:30.207Z,7.67
2022-10-16T00:57:07.698Z,6.37
2022-10-16T00:59:40.474Z,5.90
2022-10-16T01:02:12.671Z,5.77
2022-10-16T01:04:53.634Z,11.07
2022-10-16T01:07:31.416Z,9.63
2022-10-16T01:10:23.279Z,5.67
2022-10-16T01:13:09.220Z,4.80
2022-10-16T01:16:07.743Z,8.93
2022-10-16T01:19:15.328Z,8.63
2022-10-16T01:21:48.162Z,12.47
2022-10-16T01:27:21.431Z,9.77
2022-10-16T01:30:14.903Z,11.50
2022-10-16T01:33:18.347Z,14.07
2022-10-16T01:35:54.599Z,7.97
2022-10-16T01:38:36.019Z,7.40
2022-10-16T01:41:17.252Z,9.57
2022-10-16T01:44:03.892Z,7.93
2022-10-16T01:46:34.152Z,6.57
2022-10-16T01:49:04.970Z,7.40
2022-10-16T01:51:33.338Z,8.03
2022-10-16T01:54:03.226Z,8.10
2022-10-16T01:56:31.636Z,9.00
2022-10-16T01:59:12.580Z,5.60
2022-10-16T02:01:46.978Z,5.67
2022-10-16T02:04:34.587Z,6.93
2022-10-16T02:07:05.172Z,6.33
2022-10-16T02:09:35.908Z,10.10
2022-10-16T02:12:31.177Z,11.70
2022-10-16T02:14:58.965Z,7.90
2022-10-16T02:17:27.643Z,17.00
2022-10-16T02:19:58.377Z,16.10
2022-10-16T02:22:39.028Z,9.47
2022-10-16T02:25:19.091Z,12.47
2022-10-16T02:28:24.678Z,14.10
2022-10-16T02:31:03.120Z,11.63
2022-10-16T02:33:32.247Z,7.27
2022-10-16T02:36:00.027Z,8.30
2022-10-16T02:38:28.812Z,8.50
2022-10-16T02:40:56.731Z,8.63
2022-10-16T02:43:24.724Z,5.53
2022-10-16T02:45:52.656Z,5.07
2022-10-16T02:48:20.105Z,7.87
2022-10-16T02:50:47.546Z,4.40
2022-10-16T02:53:15.003Z,6.03
2022-10-16T02:55:43.033Z,5.27
2022-10-16T02:58:10.562Z,4.80
2022-10-16T03:00:38.170Z,10.33
2022-10-16T03:03:05.565Z,4.13
2022-10-16T03:05:32.996Z,7.67
2022-10-16T03:08:01.719Z,4.37
2022-10-16T03:10:29.432Z,6.27
2022-10-16T03:12:56.881Z,5.40
2022-10-16T03:15:24.404Z,6.30
2022-10-16T03:17:51.861Z,10.20
2022-10-16T03:20:19.346Z,8.37
2022-10-16T03:22:46.761Z,7.07
2022-10-16T03:25:14.302Z,6.87
2022-10-16T03:27:41.813Z,5.73
2022-10-16T03:30:10.331Z,5.47
2022-10-16T03:32:37.832Z,8.87
2022-10-16T03:35:05.770Z,8.10
2022-10-16T03:37:33.533Z,9.27
2022-10-16T03:40:01.022Z,10.53
2022-10-16T03:42:28.468Z,9.87
2022-10-16T03:44:55.860Z,7.77
2022-10-16T03:47:25.014Z,16.77
2022-10-16T03:49:52.678Z,9.03
2022-10-16T03:52:20.169Z,7.70
2022-10-16T03:54:47.694Z,7.83
2022-10-16T03:57:15.099Z,8.93
2022-10-16T03:59:42.565Z,11.77
2022-10-16T04:02:09.943Z,12.53
2022-10-16T04:04:37.664Z,15.73
2022-10-16T04:07:05.110Z,26.77
2022-10-16T04:09:32.679Z,26.67
2022-10-16T04:12:00.096Z,24.37
2022-10-16T04:14:27.483Z,18.33
2022-10-16T04:16:54.902Z,14.73
2022-10-16T04:19:22.356Z,18.83
2022-10-16T04:21:49.749Z,17.53
2022-10-16T04:24:17.177Z,18.17
2022-10-16T04:26:44.577Z,18.77
2022-10-16T04:29:12.094Z,18.30
2022-10-16T04:31:39.651Z,21.23
2022-10-16T04:34:07.167Z,16.10
2022-10-16T04:36:34.591Z,17.40
2022-10-16T04:39:02.000Z,16.03
2022-10-16T04:41:29.485Z,23.77
2022-10-16T04:43:56.924Z,22.53
2022-10-16T04:46:24.412Z,18.67
2022-10-16T04:48:51.841Z,19.03
2022-10-16T04:51:19.935Z,11.33
2022-10-16T04:53:49.842Z,9.83
2022-10-16T04:56:17.967Z,11.60
2022-10-16T04:58:45.841Z,8.43
2022-10-16T05:01:13.358Z,8.17
2022-10-16T05:03:40.775Z,12.77
2022-10-16T05:06:08.800Z,6.90
2022-10-16T05:08:36.347Z,9.33
2022-10-16T05:11:04.043Z,9.93
2022-10-16T05:13:31.465Z,9.30
2022-10-16T05:15:58.899Z,9.47
2022-10-16T05:18:26.321Z,9.50
2022-10-16T05:20:53.827Z,10.43
2022-10-16T05:23:21.252Z,12.17
2022-10-16T05:25:59.358Z,8.67
2022-10-16T05:28:29.042Z,12.77
2022-10-16T05:30:57.039Z,7.63
2022-10-16T05:33:26.548Z,11.03
2022-10-16T05:35:53.974Z,12.07
2022-10-16T05:38:24.150Z,8.33
2022-10-16T05:40:55.792Z,7.30
2022-10-16T05:43:23.629Z,10.43
2022-10-16T05:45:59.740Z,10.60
2022-10-16T05:48:28.704Z,12.03
2022-10-16T05:51:09.736Z,9.03
2022-10-16T05:53:40.051Z,11.23
2022-10-16T05:56:10.208Z,11.93
2022-10-16T05:58:41.391Z,8.40
2022-10-16T06:01:20.222Z,41.03
2022-10-16T06:03:48.486Z,45.77
2022-10-16T06:06:21.736Z,38.70
2022-10-16T06:08:50.859Z,19.03
2022-10-16T06:11:21.716Z,8.93
2022-10-16T06:13:54.859Z,9.53
2022-10-16T06:16:22.496Z,15.43
2022-10-16T06:18:51.561Z,13.13
2022-10-16T06:21:23.507Z,8.73
2022-10-16T06:23:50.958Z,13.33
2022-10-16T06:26:22.082Z,10.13
2022-10-16T06:28:49.865Z,10.27
2022-10-16T06:31:18.466Z,12.10
2022-10-16T06:33:47.950Z,5.40
2022-10-16T06:36:18.279Z,12.87
2022-10-16T06:38:46.536Z,9.00
2022-10-16T06:41:17.667Z,11.63
2022-10-16T06:43:46.446Z,13.77
2022-10-16T06:46:17.002Z,11.10
2022-10-16T06:48:44.721Z,7.90
2022-10-16T06:51:21.267Z,7.97
2022-10-16T06:54:03.980Z,8.20
2022-10-16T06:56:34.213Z,6.50
2022-10-16T06:59:03.045Z,8.33
2022-10-16T07:01:31.216Z,6.47
2022-10-16T07:03:58.859Z,14.43
2022-10-16T07:06:28.307Z,10.83
2022-10-16T07:08:56.047Z,10.33
2022-10-16T07:11:25.356Z,11.67
2022-10-16T07:13:56.426Z,10.87
2022-10-16T07:16:30.710Z,8.20
2022-10-16T07:19:01.873Z,7.00
2022-10-16T07:21:36.709Z,8.47
2022-10-16T07:24:07.146Z,10.53
2022-10-16T07:26:38.749Z,6.77
2022-10-16T07:29:17.532Z,7.63
2022-10-16T07:31:45.441Z,6.80
2022-10-16T07:34:14.812Z,8.47
2022-10-16T07:39:14.961Z,9.07
2022-10-16T07:41:42.412Z,6.23
2022-10-16T07:44:10.004Z,11.87
2022-10-16T07:46:37.480Z,10.30
2022-10-16T07:49:05.494Z,10.43
2022-10-16T07:51:34.178Z,7.27
2022-10-16T07:54:02.425Z,11.83
2022-10-16T07:56:33.115Z,7.53
2022-10-16T07:59:06.286Z,8.27
2022-10-16T08:01:34.046Z,8.47
2022-10-16T08:04:03.118Z,7.87
2022-10-16T08:06:30.587Z,4.07
2022-10-16T08:08:58.198Z,5.40
2022-10-16T08:11:25.974Z,8.43
2022-10-16T08:13:55.935Z,10.87
2022-10-16T08:16:24.218Z,5.93
2022-10-16T08:18:53.341Z,9.33
2022-10-16T08:21:26.701Z,8.37
2022-10-16T08:23:58.147Z,9.40
2022-10-16T08:26:28.606Z,8.77
2022-10-16T08:28:57.317Z,5.97
2022-10-16T08:31:25.460Z,7.73
2022-10-16T08:33:53.696Z,6.77
2022-10-16T08:36:21.982Z,8.30
2022-10-16T08:38:51.457Z,5.50
2022-10-16T08:41:32.900Z,7.07
2022-10-16T08:44:37.764Z,5.23
2022-10-16T08:47:24.412Z,5.30
2022-10-16T08:50:15.466Z,6.03
2022-10-16T08:52:45.867Z,8.03
2022-10-16T08:55:34.185Z,6.67
2022-10-16T08:58:02.305Z,3.83
2022-10-16T09:00:30.793Z,6.10
2022-10-16T09:03:26.460Z,9.07
2022-10-16T09:06:23.968Z,6.30
2022-10-16T09:09:24.504Z,6.50
2022-10-16T09:11:54.966Z,4.07
2022-10-16T09:15:12.786Z,4.57
2022-10-16T09:18:27.456Z,5.40
2022-10-16T09:21:25.358Z,8.93
2022-10-16T09:23:52.971Z,8.27
2022-10-16T09:28:54.656Z,4.13
2022-10-16T09:31:24.478Z,4.90
2022-10-16T09:34:02.017Z,13.07
2022-10-16T09:36:45.195Z,7.60
2022-10-16T09:39:13.621Z,5.17
2022-10-16T09:41:46.650Z,5.53
2022-10-16T09:44:30.995Z,7.23
2022-10-16T09:47:12.278Z,8.60
2022-10-16T09:49:39.747Z,5.53
2022-10-16T09:52:16.982Z,6.97
2022-10-16T09:54:58.200Z,6.17
2022-10-16T09:57:28.120Z,4.63
2022-10-16T09:59:59.174Z,5.70
2022-10-16T10:02:37.238Z,6.90
2022-10-16T10:05:20.389Z,6.90
2022-10-16T10:07:53.419Z,5.50
2022-10-16T10:10:30.795Z,2.97
2022-10-16T10:13:01.068Z,4.23
2022-10-16T10:15:35.688Z,10.13
2022-10-16T10:18:04.336Z,4.60
2022-10-16T10:20:39.204Z,4.33
2022-10-16T10:23:28.047Z,4.90
2022-10-16T10:25:57.990Z,3.30
2022-10-16T10:29:03.084Z,7.37
2022-10-16T10:32:01.104Z,10.13
2022-10-16T10:34:54.198Z,7.33
2022-10-16T10:37:43.791Z,6.70
2022-10-16T10:40:44.370Z,6.20
2022-10-16T10:43:20.158Z,6.80
2022-10-16T10:45:49.945Z,5.10
2022-10-16T10:48:39.141Z,4.10
2022-10-16T10:51:14.385Z,5.43
2022-10-16T10:54:19.192Z,6.57
2022-10-16T10:57:10.453Z,4.13
2022-10-16T11:00:21.928Z,3.07
2022-10-16T11:03:14.564Z,3.60
2022-10-16T11:06:06.373Z,21.63
2022-10-16T11:08:50.134Z,6.63
2022-10-16T11:11:28.328Z,3.13
2022-10-16T11:14:17.490Z,3.95
2022-10-16T11:17:18.266Z,2.75
2022-10-16T11:20:17.427Z,3.22
2022-10-16T11:23:29.817Z,4.70
2022-10-16T11:26:03.524Z,4.82
2022-10-16T11:28:53.104Z,6.40
2022-10-16T11:31:47.010Z,10.73
2022-10-16T11:34:31.729Z,5.47
2022-10-16T11:37:37.964Z,4.90
2022-10-16T11:40:26.078Z,4.95
2022-10-16T11:43:07.385Z,3.20
2022-10-16T11:45:45.949Z,3.35
2022-10-16T11:48:31.374Z,3.75
2022-10-16T11:51:16.354Z,5.85
2022-10-16T11:53:47.540Z,4.38
2022-10-16T11:56:20.139Z,4.28
2022-10-16T11:58:57.220Z,5.15
2022-10-16T12:01:34.442Z,7.65
2022-10-16T12:04:28.664Z,4.82
2022-10-16T12:07:10.136Z,4.15
2022-10-16T12:09:42.274Z,3.80
2022-10-16T12:13:05.372Z,3.08
2022-10-16T12:18:26.220Z,3.60
2022-10-16T12:21:08.568Z,8.07
2022-10-16T12:23:51.736Z,4.70
2022-10-16T12:26:35.363Z,3.20
2022-10-16T12:29:40.140Z,2.97
2022-10-16T12:32:48.511Z,3.60
2022-10-16T12:35:33.294Z,8.00
2022-10-16T12:38:46.225Z,3.30
2022-10-16T12:41:15.694Z,3.88
2022-10-16T12:43:46.677Z,4.22
2022-10-16T12:46:14.310Z,4.30
2022-10-16T12:48:49.469Z,4.55
2022-10-16T12:51:32.863Z,6.05
2022-10-16T12:55:00.141Z,4.32
2022-10-16T12:57:47.908Z,7.15
2022-10-16T13:00:42.006Z,3.72
2022-10-16T13:03:39.591Z,4.97
2022-10-16T13:06:28.305Z,2.63
2022-10-16T13:09:10.813Z,4.97
2022-10-16T13:12:20.852Z,7.65
2022-10-16T13:15:13.043Z,2.63
2022-10-16T13:18:06.821Z,8.20
2022-10-16T13:20:58.944Z,2.85
2022-10-16T13:24:15.416Z,12.15
2022-10-16T13:26:59.886Z,5.45
2022-10-16T13:29:35.481Z,2.88
2022-10-16T13:32:15.682Z,5.95
2022-10-16T13:34:49.725Z,6.55
2022-10-16T13:37:24.586Z,4.15
2022-10-16T13:39:52.820Z,3.60
2022-10-16T13:42:29.285Z,3.53
2022-10-16T13:44:58.208Z,10.32
2022-10-16T13:47:29.236Z,3.72
2022-10-16T13:50:26.259Z,5.10
2022-10-16T13:53:03.844Z,5.43
2022-10-16T13:55:52.945Z,8.70
2022-10-16T13:58:21.544Z,3.55
2022-10-16T14:01:07.155Z,2.97
2022-10-16T14:03:36.710Z,7.47
2022-10-16T14:06:32.626Z,5.07
2022-10-16T14:09:19.160Z,9.82
2022-10-16T14:12:03.870Z,3.70
2022-10-16T14:14:53.855Z,7.65
2022-10-16T14:17:30.126Z,5.55
2022-10-16T14:20:04.073Z,4.55
2022-10-16T14:22:39.169Z,8.65
2022-10-16T14:25:33.235Z,6.47
2022-10-16T14:28:25.930Z,5.53
2022-10-16T14:31:26.103Z,8.60
2022-10-16T14:33:53.608Z,9.65
2022-10-16T14:36:22.852Z,6.43
2022-10-16T14:39:14.839Z,4.82
2022-10-16T14:41:53.687Z,5.32
2022-10-16T14:44:42.547Z,7.35
2022-10-16T14:47:31.182Z,6.07
2022-10-16T14:50:00.904Z,27.45
2022-10-16T14:52:28.443Z,8.73
2022-10-16T14:54:57.491Z,8.73
2022-10-16T14:57:29.606Z,5.10
2022-10-16T14:59:59.453Z,4.45
2022-10-16T15:02:40.058Z,6.70
2022-10-16T15:05:16.021Z,7.30
2022-10-16T15:07:43.879Z,9.23
2022-10-16T15:10:12.078Z,6.75
2022-10-16T15:12:39.845Z,5.55
2022-10-16T15:15:25.163Z,7.60
2022-10-16T15:17:57.898Z,35.70
2022-10-16T15:20:28.796Z,25.47
2022-10-16T15:22:56.350Z,29.73
2022-10-16T15:25:48.360Z,24.57
2022-10-16T15:28:18.130Z,33.60
2022-10-16T15:30:46.736Z,28.97
2022-10-16T15:33:20.556Z,11.80
2022-10-16T15:35:50.127Z,19.13
2022-10-16T15:38:19.938Z,13.80
2022-10-16T15:40:51.257Z,14.73
2022-10-16T15:43:20.113Z,16.07
2022-10-16T15:46:10.860Z,20.37
2022-10-16T15:48:38.905Z,14.50
2022-10-16T15:51:09.153Z,10.53
2022-10-16T15:53:38.678Z,12.23
2022-10-16T15:56:27.231Z,12.03
2022-10-16T15:58:55.318Z,8.73
2022-10-16T16:01:25.780Z,7.07
2022-10-16T16:03:57.158Z,8.30
2022-10-16T16:06:28.252Z,6.33
2022-10-16T16:08:55.793Z,17.47
2022-10-16T16:11:25.823Z,8.27
2022-10-16T16:13:55.673Z,9.53
2022-10-16T16:16:23.241Z,11.20
2022-10-16T16:18:55.155Z,9.80
2022-10-16T16:21:28.089Z,16.50
2022-10-16T16:23:56.691Z,14.10
2022-10-16T16:26:28.941Z,21.47
2022-10-16T16:28:57.756Z,13.83
2022-10-16T16:31:27.955Z,9.13
2022-10-16T16:33:57.902Z,9.50
2022-10-16T16:36:27.469Z,13.40
2022-10-16T16:38:54.981Z,8.60
2022-10-16T16:41:27.464Z,11.47
2022-10-16T16:44:02.862Z,13.33
2022-10-16T16:46:30.905Z,11.00
2022-10-16T16:49:00.396Z,12.33
2022-10-16T16:51:31.381Z,11.30
2022-10-16T16:53:59.786Z,15.33
2022-10-16T16:56:37.991Z,19.50
2022-10-16T16:59:06.006Z,21.67
2022-10-16T17:01:33.926Z,27.07
2022-10-16T17:04:03.210Z,22.10
2022-10-16T17:06:33.910Z,26.17
2022-10-16T17:09:07.427Z,22.53
2022-10-16T17:11:36.278Z,21.20
2022-10-16T17:14:05.185Z,13.20
2022-10-16T17:16:37.090Z,12.83
2022-10-16T17:19:11.423Z,18.03
2022-10-16T17:21:40.469Z,12.43
2022-10-16T17:24:09.098Z,15.90
2022-10-16T17:26:38.928Z,14.47
2022-10-16T17:29:07.499Z,14.47
2022-10-16T17:31:37.764Z,13.00
2022-10-16T17:34:08.801Z,16.97
2022-10-16T17:36:44.207Z,14.73
2022-10-16T17:39:14.733Z,11.07
2022-10-16T17:41:48.750Z,5.07
2022-10-16T17:44:20.279Z,4.33
2022-10-16T17:46:52.130Z,5.37
2022-10-16T17:51:57.426Z,4.27
2022-10-16T17:54:25.656Z,3.83
2022-10-16T17:56:54.908Z,4.33
2022-10-16T17:59:24.707Z,7.07
2022-10-16T18:01:53.738Z,3.80
2022-10-16T18:04:23.509Z,3.77
2022-10-16T18:06:56.055Z,3.63
2022-10-16T18:09:25.120Z,3.10
2022-10-16T18:12:11.373Z,3.53
2022-10-16T18:14:38.888Z,4.80
2022-10-16T18:17:07.312Z,4.93
2022-10-16T18:19:36.655Z,4.83
2022-10-16T18:22:05.244Z,10.60
2022-10-16T18:24:37.535Z,8.70
2022-10-16T18:27:05.892Z,12.00
2022-10-16T18:29:33.832Z,10.10
2022-10-16T18:32:02.475Z,11.37
2022-10-16T18:34:32.351Z,9.57
2022-10-16T18:37:02.665Z,7.83
2022-10-16T18:39:31.540Z,6.40
2022-10-16T18:42:00.087Z,7.10
2022-10-16T18:44:31.256Z,8.60
2022-10-16T18:46:59.269Z,8.03
2022-10-16T18:49:35.764Z,10.60
2022-10-16T18:52:05.423Z,11.87
2022-10-16T18:54:36.129Z,15.50
2022-10-16T18:57:05.378Z,13.30
2022-10-16T18:59:34.498Z,7.57
2022-10-16T19:02:02.037Z,6.20
2022-10-16T19:04:29.685Z,6.73
2022-10-16T19:06:57.313Z,6.53
2022-10-16T19:09:25.760Z,5.67
2022-10-16T19:11:53.992Z,4.30
2022-10-16T19:14:22.008Z,6.20
2022-10-16T19:16:52.463Z,6.53
2022-10-16T19:19:24.012Z,6.20
2022-10-16T19:21:56.373Z,6.13
2022-10-16T19:24:25.571Z,5.77
2022-10-16T19:26:53.094Z,3.73
2022-10-16T19:29:20.586Z,5.77
2022-10-16T19:31:49.452Z,4.33
2022-10-16T19:34:16.919Z,7.60
2022-10-16T19:36:44.836Z,5.27
2022-10-16T19:41:49.626Z,6.83
2022-10-16T19:44:20.299Z,14.17
2022-10-16T19:46:49.184Z,14.77
2022-10-16T19:49:22.598Z,10.97
2022-10-16T19:51:57.603Z,9.80
2022-10-16T19:54:25.284Z,7.47
2022-10-16T19:56:52.964Z,7.93
2022-10-16T19:59:21.995Z,11.00
2022-10-16T20:01:49.584Z,8.57
2022-10-16T20:04:17.667Z,9.57
2022-10-16T20:06:46.386Z,11.27
2022-10-16T20:09:14.106Z,14.93
2022-10-16T20:11:41.986Z,15.50
2022-10-16T20:14:09.893Z,12.50
2022-10-16T20:16:40.306Z,13.50
2022-10-16T20:19:08.034Z,15.30
2022-10-16T20:21:36.460Z,12.63
2022-10-16T20:24:06.386Z,14.70
2022-10-16T20:26:34.454Z,14.33
2022-10-16T20:29:02.514Z,12.70
2022-10-16T20:31:33.485Z,13.23
2022-10-16T20:34:06.407Z,13.70
2022-10-16T20:36:35.711Z,9.27
2022-10-16T20:39:05.492Z,10.70
2022-10-16T20:41:33.984Z,9.50
2022-10-16T20:44:06.582Z,9.83
2022-10-16T20:46:34.793Z,8.00
2022-10-16T20:49:10.886Z,15.30
2022-10-16T20:51:44.099Z,14.40
2022-10-16T20:54:12.487Z,13.03
2022-10-16T20:56:40.220Z,15.03
2022-10-16T20:59:07.724Z,12.03
2022-10-16T21:01:36.802Z,9.83
2022-10-16T21:04:08.470Z,9.33
2022-10-16T21:06:39.011Z,12.97
2022-10-16T21:09:07.971Z,8.97
2022-10-16T21:11:37.413Z,9.80
2022-10-16T21:14:07.462Z,10.43
2022-10-16T21:16:35.624Z,9.13
2022-10-16T21:19:04.224Z,6.13
2022-10-16T21:21:35.778Z,5.47
2022-10-16T21:24:04.413Z,7.67
2022-10-16T21:26:32.310Z,6.73
2022-10-16T21:29:07.300Z,7.63
2022-10-16T21:31:35.304Z,8.97
2022-10-16T21:34:04.137Z,5.03
2022-10-16T21:36:35.564Z,6.07
2022-10-16T21:39:15.728Z,5.27
2022-10-16T21:41:46.343Z,6.13
2022-10-16T21:44:14.346Z,8.67
2022-10-16T21:46:44.192Z,7.77
2022-10-16T21:49:19.241Z,11.53
2022-10-16T21:51:50.643Z,16.20
2022-10-16T21:54:22.054Z,11.47
2022-10-16T21:56:49.625Z,11.90
2022-10-16T21:59:17.797Z,10.67
2022-10-16T22:01:45.584Z,8.77
2022-10-16T22:04:15.977Z,8.90
2022-10-16T22:06:45.773Z,10.57
2022-10-16T22:09:14.709Z,7.07
2022-10-16T22:11:45.183Z,7.13
2022-10-16T22:14:17.769Z,8.63
2022-10-16T22:16:46.562Z,10.83
2022-10-16T22:19:17.240Z,6.83
2022-10-16T22:21:48.173Z,5.03
2022-10-16T22:24:16.883Z,4.93
2022-10-16T22:26:44.712Z,4.93
2022-10-16T22:29:14.569Z,5.03
2022-10-16T22:31:43.162Z,4.57
2022-10-16T22:34:13.884Z,6.77
2022-10-16T22:36:41.650Z,3.70
2022-10-16T22:39:09.905Z,5.57
2022-10-16T22:41:37.799Z,8.10
2022-10-16T22:44:05.478Z,3.70
2022-10-16T22:46:32.990Z,6.17
2022-10-16T22:49:00.542Z,5.23
2022-10-16T22:51:28.672Z,5.27
2022-10-16T22:53:59.145Z,5.93
2022-10-16T22:56:26.851Z,5.60
2022-10-16T22:58:54.520Z,4.53
2022-10-16T23:01:30.195Z,5.23
2022-10-16T23:03:58.191Z,4.50
2022-10-16T23:06:25.715Z,4.53
2022-10-16T23:08:55.310Z,6.13
2022-10-16T23:11:27.324Z,4.70
2022-10-16T23:13:55.315Z,3.10
2022-10-16T23:16:24.045Z,8.53
2022-10-16T23:18:52.420Z,5.70
2022-10-16T23:21:24.307Z,7.53
2022-10-16T23:23:53.535Z,7.23
2022-10-16T23:26:25.722Z,4.90
2022-10-16T23:28:53.579Z,9.73
2022-10-16T23:31:21.449Z,5.87
2022-10-16T23:33:49.323Z,5.13
2022-10-16T23:36:20.626Z,3.43
2022-10-16T23:38:49.918Z,6.43
2022-10-16T23:41:19.321Z,3.57
2022-10-16T23:43:47.179Z,5.13
2022-10-16T23:46:15.796Z,3.67
2022-10-16T23:48:44.260Z,4.70
2022-10-16T23:51:12.888Z,3.60
2022-10-16T23:53:40.822Z,4.07
2022-10-16T23:56:08.888Z,3.10
2022-10-16T23:58:36.488Z,3.97
